Time;durP1;ratioP1;P1;durP2;ratioP2;P2;SDS_P1;SDS_P2;PMS_P1;PMS_P2;Temp;Humidity;BMP_temperature;BMP_pressure;BME280_temperature;BME280_humidity;BME280_pressure;Samples;Min_cycle;Max_cycle;Signal;HPM_P1;HPM_P2
2022/03/26 00:00:08;;;;;;;23.3;13.05;;;;;;;3.08;37.88574;96044.06;;;;
2022/03/26 00:01:11;;;;;;;23.3;13.05;;;;;;;3.08;37.88574;96044.06;;;;
2022/03/26 00:02:11;;;;;;;23.3;13.05;;;;;;;3.08;37.88574;96044.06;;;;
2022/03/26 00:03:12;;;;;;;27.4;14.9;;;;;;;2.92;38.08398;96042.78;;;;
2022/03/26 00:04:13;;;;;;;27.4;14.9;;;;;;;2.92;38.08398;96042.78;;;;
2022/03/26 00:05:13;;;;;;;27.4;14.9;;;;;;;2.92;38.08398;96042.78;;;;
2022/03/26 00:06:14;;;;;;;27.4;14.9;;;;;;;2.92;38.08398;96042.78;;;;
2022/03/26 00:07:15;;;;;;;27.4;14.9;;;;;;;2.92;38.08398;96042.78;;;;
2022/03/26 00:08:15;;;;;;;27.4;14.9;;;;;;;2.92;38.08398;96042.78;;;;
2022/03/26 00:09:16;;;;;;;27.4;14.9;;;;;;;2.92;38.08398;96042.78;;;;
2022/03/26 00:10:16;;;;;;;27.4;14.9;;;;;;;2.92;38.08398;96042.78;;;;
2022/03/26 00:11:17;;;;;;;27.4;14.9;;;;;;;2.92;38.08398;96042.78;;;;
2022/03/26 00:12:18;;;;;;;27.4;14.9;;;;;;;2.92;38.08398;96042.78;;;;
2022/03/26 00:13:20;;;;;;;25.45;14.15;;;;;;;2.7;38.37207;96050.6;;;;
2022/03/26 00:14:20;;;;;;;25.45;14.15;;;;;;;2.7;38.37207;96050.6;;;;
2022/03/26 00:15:21;;;;;;;25.45;14.15;;;;;;;2.7;38.37207;96050.6;;;;
2022/03/26 00:16:21;;;;;;;25.45;14.15;;;;;;;2.7;38.37207;96050.6;;;;
2022/03/26 00:17:22;;;;;;;25.45;14.15;;;;;;;2.7;38.37207;96050.6;;;;
2022/03/26 00:18:22;;;;;;;25.45;14.15;;;;;;;2.7;38.37207;96050.6;;;;
2022/03/26 00:19:23;;;;;;;25.45;14.15;;;;;;;2.7;38.37207;96050.6;;;;
2022/03/26 00:20:23;;;;;;;25.45;14.15;;;;;;;2.7;38.37207;96050.6;;;;
2022/03/26 00:21:24;;;;;;;25.45;14.15;;;;;;;2.7;38.37207;96050.6;;;;
2022/03/26 00:22:25;;;;;;;25.45;14.15;;;;;;;2.7;38.37207;96050.6;;;;
2022/03/26 00:23:25;;;;;;;25.45;14.15;;;;;;;2.7;38.37207;96050.6;;;;
2022/03/26 00:24:26;;;;;;;25.45;13.35;;;;;;;2.47;38.61719;96052.19;;;;
2022/03/26 00:25:27;;;;;;;25.45;13.35;;;;;;;2.47;38.61719;96052.19;;;;
2022/03/26 00:26:27;;;;;;;25.45;13.35;;;;;;;2.47;38.61719;96052.19;;;;
2022/03/26 00:27:27;;;;;;;25.45;13.35;;;;;;;2.47;38.61719;96052.19;;;;
2022/03/26 00:28:28;;;;;;;25.45;13.35;;;;;;;2.47;38.61719;96052.19;;;;
2022/03/26 00:29:29;;;;;;;25.45;13.35;;;;;;;2.47;38.61719;96052.19;;;;
2022/03/26 00:30:29;;;;;;;25.45;13.35;;;;;;;2.47;38.61719;96052.19;;;;
2022/03/26 00:31:33;;;;;;;25.45;13.35;;;;;;;2.47;38.61719;96052.19;;;;
2022/03/26 00:32:33;;;;;;;25.45;13.35;;;;;;;2.47;38.61719;96052.19;;;;
2022/03/26 00:33:34;;;;;;;25.45;13.35;;;;;;;2.47;38.61719;96052.19;;;;
2022/03/26 00:34:34;;;;;;;25.4;14.1;;;;;;;2.29;38.8457;96050.2;;;;
2022/03/26 00:35:35;;;;;;;25.4;14.1;;;;;;;2.29;38.8457;96050.2;;;;
2022/03/26 00:36:36;;;;;;;25.4;14.1;;;;;;;2.29;38.8457;96050.2;;;;
2022/03/26 00:37:36;;;;;;;25.4;14.1;;;;;;;2.29;38.8457;96050.2;;;;
2022/03/26 00:38:37;;;;;;;25.4;14.1;;;;;;;2.29;38.8457;96050.2;;;;
2022/03/26 00:39:39;;;;;;;25.4;14.1;;;;;;;2.29;38.8457;96050.2;;;;
2022/03/26 00:40:40;;;;;;;25.4;14.1;;;;;;;2.29;38.8457;96050.2;;;;
2022/03/26 00:41:41;;;;;;;25.4;14.1;;;;;;;2.29;38.8457;96050.2;;;;
2022/03/26 00:42:41;;;;;;;25.4;14.1;;;;;;;2.29;38.8457;96050.2;;;;
2022/03/26 00:43:42;;;;;;;25.4;14.1;;;;;;;2.29;38.8457;96050.2;;;;
2022/03/26 00:44:42;;;;;;;25.4;14.1;;;;;;;2.29;38.8457;96050.2;;;;
2022/03/26 00:45:43;;;;;;;21.2;13.15;;;;;;;2.14;39.09668;96047.85;;;;
2022/03/26 00:46:45;;;;;;;21.2;13.15;;;;;;;2.14;39.09668;96047.85;;;;
2022/03/26 00:47:45;;;;;;;21.2;13.15;;;;;;;2.14;39.09668;96047.85;;;;
2022/03/26 00:48:46;;;;;;;21.2;13.15;;;;;;;2.14;39.09668;96047.85;;;;
2022/03/26 00:49:47;;;;;;;21.2;13.15;;;;;;;2.14;39.09668;96047.85;;;;
2022/03/26 00:50:48;;;;;;;21.2;13.15;;;;;;;2.14;39.09668;96047.85;;;;
2022/03/26 00:51:48;;;;;;;21.2;13.15;;;;;;;2.14;39.09668;96047.85;;;;
2022/03/26 00:52:49;;;;;;;21.2;13.15;;;;;;;2.14;39.09668;96047.85;;;;
2022/03/26 00:53:49;;;;;;;21.2;13.15;;;;;;;2.14;39.09668;96047.85;;;;
2022/03/26 00:54:50;;;;;;;21.2;13.15;;;;;;;2.14;39.09668;96047.85;;;;
2022/03/26 00:55:50;;;;;;;21.6;12.6;;;;;;;1.91;39.37207;96044.59;;;;
2022/03/26 00:56:51;;;;;;;21.6;12.6;;;;;;;1.91;39.37207;96044.59;;;;
2022/03/26 00:57:51;;;;;;;21.6;12.6;;;;;;;1.91;39.37207;96044.59;;;;
2022/03/26 00:58:53;;;;;;;21.6;12.6;;;;;;;1.91;39.37207;96044.59;;;;
2022/03/26 00:59:53;;;;;;;21.6;12.6;;;;;;;1.91;39.37207;96044.59;;;;
2022/03/26 01:00:54;;;;;;;21.6;12.6;;;;;;;1.91;39.37207;96044.59;;;;
2022/03/26 01:01:54;;;;;;;21.6;12.6;;;;;;;1.91;39.37207;96044.59;;;;
2022/03/26 01:02:55;;;;;;;21.6;12.6;;;;;;;1.91;39.37207;96044.59;;;;
2022/03/26 01:03:57;;;;;;;21.6;12.6;;;;;;;1.91;39.37207;96044.59;;;;
2022/03/26 01:04:57;;;;;;;21.6;12.6;;;;;;;1.91;39.37207;96044.59;;;;
2022/03/26 01:05:58;;;;;;;21.6;12.6;;;;;;;1.91;39.37207;96044.59;;;;
2022/03/26 01:06:58;;;;;;;21.1;12.3;;;;;;;1.74;39.6748;96052.23;;;;
2022/03/26 01:07:59;;;;;;;21.1;12.3;;;;;;;1.74;39.6748;96052.23;;;;
2022/03/26 01:09:00;;;;;;;21.1;12.3;;;;;;;1.74;39.6748;96052.23;;;;
2022/03/26 01:10:01;;;;;;;21.1;12.3;;;;;;;1.74;39.6748;96052.23;;;;
2022/03/26 01:11:03;;;;;;;21.1;12.3;;;;;;;1.74;39.6748;96052.23;;;;
2022/03/26 01:12:04;;;;;;;21.1;12.3;;;;;;;1.74;39.6748;96052.23;;;;
2022/03/26 01:13:05;;;;;;;21.1;12.3;;;;;;;1.74;39.6748;96052.23;;;;
2022/03/26 01:14:06;;;;;;;21.1;12.3;;;;;;;1.74;39.6748;96052.23;;;;
2022/03/26 01:15:06;;;;;;;21.1;12.3;;;;;;;1.74;39.6748;96052.23;;;;
2022/03/26 01:16:08;;;;;;;21.1;12.3;;;;;;;1.74;39.6748;96052.23;;;;
2022/03/26 01:17:08;;;;;;;21.1;12.3;;;;;;;1.74;39.6748;96052.23;;;;
2022/03/26 01:18:09;;;;;;;21.1;12.3;;;;;;;1.74;39.6748;96052.23;;;;
2022/03/26 01:19:10;;;;;;;21.1;12.3;;;;;;;1.74;39.6748;96052.23;;;;
2022/03/26 01:20:10;;;;;;;21.1;12.3;;;;;;;1.74;39.6748;96052.23;;;;
2022/03/26 01:21:12;;;;;;;21.1;12.3;;;;;;;1.74;39.6748;96052.23;;;;
2022/03/26 01:22:12;;;;;;;21.1;12.3;;;;;;;1.74;39.6748;96052.23;;;;
2022/03/26 01:23:13;;;;;;;21.1;12.3;;;;;;;1.74;39.6748;96052.23;;;;
2022/03/26 01:24:13;;;;;;;21.1;12.3;;;;;;;1.74;39.6748;96052.23;;;;
2022/03/26 01:25:14;;;;;;;21.1;12.3;;;;;;;1.74;39.6748;96052.23;;;;
2022/03/26 01:26:15;;;;;;;21.1;12.3;;;;;;;1.74;39.6748;96052.23;;;;
2022/03/26 01:27:17;;;;;;;21.1;12.3;;;;;;;1.74;39.6748;96052.23;;;;
2022/03/26 01:28:18;;;;;;;25.5;12.95;;;;;;;1.43;40.19531;96058.28;;;;
2022/03/26 01:29:19;;;;;;;25.5;12.95;;;;;;;1.43;40.19531;96058.28;;;;
2022/03/26 01:30:19;;;;;;;25.5;12.95;;;;;;;1.43;40.19531;96058.28;;;;
2022/03/26 01:31:22;;;;;;;25.5;12.95;;;;;;;1.43;40.19531;96058.28;;;;
2022/03/26 01:32:22;;;;;;;25.5;12.95;;;;;;;1.43;40.19531;96058.28;;;;
2022/03/26 01:33:23;;;;;;;25.5;12.95;;;;;;;1.43;40.19531;96058.28;;;;
2022/03/26 01:34:26;;;;;;;25.5;12.95;;;;;;;1.43;40.19531;96058.28;;;;
2022/03/26 01:35:26;;;;;;;25.5;12.95;;;;;;;1.43;40.19531;96058.28;;;;
2022/03/26 01:36:28;;;;;;;25.5;12.95;;;;;;;1.43;40.19531;96058.28;;;;
2022/03/26 01:37:28;;;;;;;25.5;12.95;;;;;;;1.43;40.19531;96058.28;;;;
2022/03/26 01:38:29;;;;;;;24;13.2;;;;;;;1.29;40.47852;96054;;;;
2022/03/26 01:39:29;;;;;;;24;13.2;;;;;;;1.29;40.47852;96054;;;;
2022/03/26 01:40:31;;;;;;;24;13.2;;;;;;;1.29;40.47852;96054;;;;
2022/03/26 01:41:33;;;;;;;24;13.2;;;;;;;1.29;40.47852;96054;;;;
2022/03/26 01:42:34;;;;;;;24;13.2;;;;;;;1.29;40.47852;96054;;;;
2022/03/26 01:43:34;;;;;;;24;13.2;;;;;;;1.29;40.47852;96054;;;;
2022/03/26 01:44:35;;;;;;;24;13.2;;;;;;;1.29;40.47852;96054;;;;
2022/03/26 01:45:37;;;;;;;24;13.2;;;;;;;1.29;40.47852;96054;;;;
2022/03/26 01:46:38;;;;;;;24;13.2;;;;;;;1.29;40.47852;96054;;;;
2022/03/26 01:47:47;;;;;;;24;13.2;;;;;;;1.29;40.47852;96054;;;;
2022/03/26 01:48:48;;;;;;;24;13.2;;;;;;;1.29;40.47852;96054;;;;
2022/03/26 01:49:50;;;;;;;24.75;14.4;;;;;;;1.3;40.7002;96055.22;;;;
2022/03/26 01:50:51;;;;;;;24.75;14.4;;;;;;;1.3;40.7002;96055.22;;;;
2022/03/26 01:51:52;;;;;;;24.75;14.4;;;;;;;1.3;40.7002;96055.22;;;;
2022/03/26 01:52:53;;;;;;;24.75;14.4;;;;;;;1.3;40.7002;96055.22;;;;
2022/03/26 01:53:54;;;;;;;24.75;14.4;;;;;;;1.3;40.7002;96055.22;;;;
2022/03/26 01:54:54;;;;;;;24.75;14.4;;;;;;;1.3;40.7002;96055.22;;;;
2022/03/26 01:55:55;;;;;;;24.75;14.4;;;;;;;1.3;40.7002;96055.22;;;;
2022/03/26 01:56:55;;;;;;;24.75;14.4;;;;;;;1.3;40.7002;96055.22;;;;
2022/03/26 01:57:57;;;;;;;24.75;14.4;;;;;;;1.3;40.7002;96055.22;;;;
2022/03/26 01:58:57;;;;;;;24.75;14.4;;;;;;;1.3;40.7002;96055.22;;;;
2022/03/26 01:59:59;;;;;;;21.85;13.75;;;;;;;1.22;40.81055;96060.44;;;;
2022/03/26 02:01:01;;;;;;;21.85;13.75;;;;;;;1.22;40.81055;96060.44;;;;
2022/03/26 02:02:01;;;;;;;21.85;13.75;;;;;;;1.22;40.81055;96060.44;;;;
2022/03/26 02:03:02;;;;;;;21.85;13.75;;;;;;;1.22;40.81055;96060.44;;;;
2022/03/26 02:04:03;;;;;;;21.85;13.75;;;;;;;1.22;40.81055;96060.44;;;;
2022/03/26 02:05:05;;;;;;;21.85;13.75;;;;;;;1.22;40.81055;96060.44;;;;
2022/03/26 02:06:06;;;;;;;21.85;13.75;;;;;;;1.22;40.81055;96060.44;;;;
2022/03/26 02:07:07;;;;;;;21.85;13.75;;;;;;;1.22;40.81055;96060.44;;;;
2022/03/26 02:08:07;;;;;;;21.85;13.75;;;;;;;1.22;40.81055;96060.44;;;;
2022/03/26 02:09:08;;;;;;;21.85;13.75;;;;;;;1.22;40.81055;96060.44;;;;
2022/03/26 02:10:10;;;;;;;21.85;13.75;;;;;;;1.22;40.81055;96060.44;;;;
2022/03/26 02:11:13;;;;;;;23.2;14.1;;;;;;;1.15;40.95117;96055.03;;;;
2022/03/26 02:12:13;;;;;;;23.2;14.1;;;;;;;1.15;40.95117;96055.03;;;;
2022/03/26 02:13:23;;;;;;;23.2;14.1;;;;;;;1.15;40.95117;96055.03;;;;
2022/03/26 02:14:24;;;;;;;23.2;14.1;;;;;;;1.15;40.95117;96055.03;;;;
2022/03/26 02:15:26;;;;;;;23.2;14.1;;;;;;;1.15;40.95117;96055.03;;;;
2022/03/26 02:16:26;;;;;;;23.2;14.1;;;;;;;1.15;40.95117;96055.03;;;;
2022/03/26 02:17:27;;;;;;;23.2;14.1;;;;;;;1.15;40.95117;96055.03;;;;
2022/03/26 02:18:28;;;;;;;23.2;14.1;;;;;;;1.15;40.95117;96055.03;;;;
2022/03/26 02:19:28;;;;;;;23.2;14.1;;;;;;;1.15;40.95117;96055.03;;;;
2022/03/26 02:20:30;;;;;;;23.2;14.1;;;;;;;1.15;40.95117;96055.03;;;;
2022/03/26 02:21:31;;;;;;;24.4;14.3;;;;;;;1.04;41.20508;96055.3;;;;
2022/03/26 02:22:33;;;;;;;24.4;14.3;;;;;;;1.04;41.20508;96055.3;;;;
2022/03/26 02:23:35;;;;;;;24.4;14.3;;;;;;;1.04;41.20508;96055.3;;;;
2022/03/26 02:24:35;;;;;;;24.4;14.3;;;;;;;1.04;41.20508;96055.3;;;;
2022/03/26 02:25:36;;;;;;;24.4;14.3;;;;;;;1.04;41.20508;96055.3;;;;
2022/03/26 02:26:37;;;;;;;24.4;14.3;;;;;;;1.04;41.20508;96055.3;;;;
2022/03/26 02:27:37;;;;;;;24.4;14.3;;;;;;;1.04;41.20508;96055.3;;;;
2022/03/26 02:28:38;;;;;;;24.4;14.3;;;;;;;1.04;41.20508;96055.3;;;;
2022/03/26 02:29:39;;;;;;;24.4;14.3;;;;;;;1.04;41.20508;96055.3;;;;
2022/03/26 02:30:39;;;;;;;24.4;14.3;;;;;;;1.04;41.20508;96055.3;;;;
2022/03/26 02:31:40;;;;;;;24.4;14.3;;;;;;;1.04;41.20508;96055.3;;;;
2022/03/26 02:32:40;;;;;;;25;14.5;;;;;;;0.96;41.39746;96049.94;;;;
2022/03/26 02:33:41;;;;;;;25;14.5;;;;;;;0.96;41.39746;96049.94;;;;
2022/03/26 02:34:42;;;;;;;25;14.5;;;;;;;0.96;41.39746;96049.94;;;;
2022/03/26 02:35:43;;;;;;;25;14.5;;;;;;;0.96;41.39746;96049.94;;;;
2022/03/26 02:36:43;;;;;;;25;14.5;;;;;;;0.96;41.39746;96049.94;;;;
2022/03/26 02:37:44;;;;;;;25;14.5;;;;;;;0.96;41.39746;96049.94;;;;
2022/03/26 02:38:44;;;;;;;25;14.5;;;;;;;0.96;41.39746;96049.94;;;;
2022/03/26 02:39:45;;;;;;;25;14.5;;;;;;;0.96;41.39746;96049.94;;;;
2022/03/26 02:40:45;;;;;;;25;14.5;;;;;;;0.96;41.39746;96049.94;;;;
2022/03/26 02:41:46;;;;;;;25;14.5;;;;;;;0.96;41.39746;96049.94;;;;
2022/03/26 02:42:46;;;;;;;25.55;14.25;;;;;;;0.84;41.57617;96050.3;;;;
2022/03/26 02:43:47;;;;;;;25.55;14.25;;;;;;;0.84;41.57617;96050.3;;;;
2022/03/26 02:44:47;;;;;;;25.55;14.25;;;;;;;0.84;41.57617;96050.3;;;;
2022/03/26 02:45:48;;;;;;;25.55;14.25;;;;;;;0.84;41.57617;96050.3;;;;
2022/03/26 02:46:48;;;;;;;25.55;14.25;;;;;;;0.84;41.57617;96050.3;;;;
2022/03/26 02:47:51;;;;;;;25.55;14.25;;;;;;;0.84;41.57617;96050.3;;;;
2022/03/26 02:48:52;;;;;;;25.55;14.25;;;;;;;0.84;41.57617;96050.3;;;;
2022/03/26 02:49:52;;;;;;;25.55;14.25;;;;;;;0.84;41.57617;96050.3;;;;
2022/03/26 02:50:53;;;;;;;25.55;14.25;;;;;;;0.84;41.57617;96050.3;;;;
2022/03/26 02:51:54;;;;;;;25.55;14.25;;;;;;;0.84;41.57617;96050.3;;;;
2022/03/26 02:52:54;;;;;;;25.55;14.25;;;;;;;0.84;41.57617;96050.3;;;;
2022/03/26 02:53:55;;;;;;;26.75;15.5;;;;;;;0.71;41.80566;96051.7;;;;
2022/03/26 02:54:55;;;;;;;26.75;15.5;;;;;;;0.71;41.80566;96051.7;;;;
2022/03/26 02:55:56;;;;;;;26.75;15.5;;;;;;;0.71;41.80566;96051.7;;;;
2022/03/26 02:56:56;;;;;;;26.75;15.5;;;;;;;0.71;41.80566;96051.7;;;;
2022/03/26 02:57:57;;;;;;;26.75;15.5;;;;;;;0.71;41.80566;96051.7;;;;
2022/03/26 02:58:57;;;;;;;26.75;15.5;;;;;;;0.71;41.80566;96051.7;;;;
2022/03/26 02:59:58;;;;;;;26.75;15.5;;;;;;;0.71;41.80566;96051.7;;;;
2022/03/26 03:00:59;;;;;;;26.75;15.5;;;;;;;0.71;41.80566;96051.7;;;;
2022/03/26 03:01:59;;;;;;;26.75;15.5;;;;;;;0.71;41.80566;96051.7;;;;
2022/03/26 03:03:00;;;;;;;26.75;15.5;;;;;;;0.71;41.80566;96051.7;;;;
2022/03/26 03:04:01;;;;;;;25.75;15.05;;;;;;;0.58;42.03613;96056.62;;;;
2022/03/26 03:05:01;;;;;;;25.75;15.05;;;;;;;0.58;42.03613;96056.62;;;;
2022/03/26 03:06:02;;;;;;;25.75;15.05;;;;;;;0.58;42.03613;96056.62;;;;
2022/03/26 03:07:03;;;;;;;25.75;15.05;;;;;;;0.58;42.03613;96056.62;;;;
2022/03/26 03:08:04;;;;;;;25.75;15.05;;;;;;;0.58;42.03613;96056.62;;;;
2022/03/26 03:09:04;;;;;;;25.75;15.05;;;;;;;0.58;42.03613;96056.62;;;;
2022/03/26 03:10:07;;;;;;;25.75;15.05;;;;;;;0.58;42.03613;96056.62;;;;
2022/03/26 03:11:08;;;;;;;25.75;15.05;;;;;;;0.58;42.03613;96056.62;;;;
2022/03/26 03:12:09;;;;;;;25.75;15.05;;;;;;;0.58;42.03613;96056.62;;;;
2022/03/26 03:13:10;;;;;;;25.75;15.05;;;;;;;0.58;42.03613;96056.62;;;;
2022/03/26 03:14:11;;;;;;;25.75;15.05;;;;;;;0.58;42.03613;96056.62;;;;
2022/03/26 03:15:12;;;;;;;28.6;15.85;;;;;;;0.52;42.19922;96070.84;;;;
2022/03/26 03:16:14;;;;;;;28.6;15.85;;;;;;;0.52;42.19922;96070.84;;;;
2022/03/26 03:17:14;;;;;;;28.6;15.85;;;;;;;0.52;42.19922;96070.84;;;;
2022/03/26 03:18:15;;;;;;;28.6;15.85;;;;;;;0.52;42.19922;96070.84;;;;
2022/03/26 03:19:16;;;;;;;28.6;15.85;;;;;;;0.52;42.19922;96070.84;;;;
2022/03/26 03:20:17;;;;;;;28.6;15.85;;;;;;;0.52;42.19922;96070.84;;;;
2022/03/26 03:21:17;;;;;;;28.6;15.85;;;;;;;0.52;42.19922;96070.84;;;;
2022/03/26 03:22:18;;;;;;;28.6;15.85;;;;;;;0.52;42.19922;96070.84;;;;
2022/03/26 03:23:18;;;;;;;28.6;15.85;;;;;;;0.52;42.19922;96070.84;;;;
2022/03/26 03:24:19;;;;;;;28.6;15.85;;;;;;;0.52;42.19922;96070.84;;;;
2022/03/26 03:25:20;;;;;;;32.6;18.1;;;;;;;0.36;42.42578;96070.82;;;;
2022/03/26 03:26:20;;;;;;;32.6;18.1;;;;;;;0.36;42.42578;96070.82;;;;
2022/03/26 03:27:21;;;;;;;32.6;18.1;;;;;;;0.36;42.42578;96070.82;;;;
2022/03/26 03:28:21;;;;;;;32.6;18.1;;;;;;;0.36;42.42578;96070.82;;;;
2022/03/26 03:29:22;;;;;;;32.6;18.1;;;;;;;0.36;42.42578;96070.82;;;;
2022/03/26 03:30:22;;;;;;;32.6;18.1;;;;;;;0.36;42.42578;96070.82;;;;
2022/03/26 03:31:23;;;;;;;32.6;18.1;;;;;;;0.36;42.42578;96070.82;;;;
2022/03/26 03:32:23;;;;;;;32.6;18.1;;;;;;;0.36;42.42578;96070.82;;;;
2022/03/26 03:33:25;;;;;;;32.6;18.1;;;;;;;0.36;42.42578;96070.82;;;;
2022/03/26 03:34:25;;;;;;;32.6;18.1;;;;;;;0.36;42.42578;96070.82;;;;
2022/03/26 03:35:26;;;;;;;32.6;18.1;;;;;;;0.36;42.42578;96070.82;;;;
2022/03/26 03:36:26;;;;;;;32.2;18.5;;;;;;;0.18;42.72461;96074.41;;;;
2022/03/26 03:37:27;;;;;;;32.2;18.5;;;;;;;0.18;42.72461;96074.41;;;;
2022/03/26 03:38:27;;;;;;;32.2;18.5;;;;;;;0.18;42.72461;96074.41;;;;
2022/03/26 03:39:28;;;;;;;32.2;18.5;;;;;;;0.18;42.72461;96074.41;;;;
2022/03/26 03:40:28;;;;;;;32.2;18.5;;;;;;;0.18;42.72461;96074.41;;;;
2022/03/26 03:41:29;;;;;;;32.2;18.5;;;;;;;0.18;42.72461;96074.41;;;;
2022/03/26 03:42:29;;;;;;;32.2;18.5;;;;;;;0.18;42.72461;96074.41;;;;
2022/03/26 03:43:30;;;;;;;32.2;18.5;;;;;;;0.18;42.72461;96074.41;;;;
2022/03/26 03:44:30;;;;;;;32.2;18.5;;;;;;;0.18;42.72461;96074.41;;;;
2022/03/26 03:45:31;;;;;;;32.2;18.5;;;;;;;0.18;42.72461;96074.41;;;;
2022/03/26 03:46:33;;;;;;;27.65;16.55;;;;;;;0.1;42.89453;96079.64;;;;
2022/03/26 03:47:33;;;;;;;27.65;16.55;;;;;;;0.1;42.89453;96079.64;;;;
2022/03/26 03:48:34;;;;;;;27.65;16.55;;;;;;;0.1;42.89453;96079.64;;;;
2022/03/26 03:49:35;;;;;;;27.65;16.55;;;;;;;0.1;42.89453;96079.64;;;;
2022/03/26 03:50:35;;;;;;;27.65;16.55;;;;;;;0.1;42.89453;96079.64;;;;
2022/03/26 03:51:36;;;;;;;27.65;16.55;;;;;;;0.1;42.89453;96079.64;;;;
2022/03/26 03:52:37;;;;;;;27.65;16.55;;;;;;;0.1;42.89453;96079.64;;;;
2022/03/26 03:53:37;;;;;;;27.65;16.55;;;;;;;0.1;42.89453;96079.64;;;;
2022/03/26 03:54:38;;;;;;;27.65;16.55;;;;;;;0.1;42.89453;96079.64;;;;
2022/03/26 03:55:38;;;;;;;27.65;16.55;;;;;;;0.1;42.89453;96079.64;;;;
2022/03/26 03:56:39;;;;;;;27.65;16.55;;;;;;;0.1;42.89453;96079.64;;;;
2022/03/26 03:57:40;;;;;;;26.05;14.95;;;;;;;0.01;43.07617;96069.45;;;;
2022/03/26 03:58:41;;;;;;;26.05;14.95;;;;;;;0.01;43.07617;96069.45;;;;
2022/03/26 03:59:42;;;;;;;26.05;14.95;;;;;;;0.01;43.07617;96069.45;;;;
2022/03/26 04:00:42;;;;;;;26.05;14.95;;;;;;;0.01;43.07617;96069.45;;;;
2022/03/26 04:01:43;;;;;;;26.05;14.95;;;;;;;0.01;43.07617;96069.45;;;;
2022/03/26 04:02:43;;;;;;;26.05;14.95;;;;;;;0.01;43.07617;96069.45;;;;
2022/03/26 04:03:44;;;;;;;26.05;14.95;;;;;;;0.01;43.07617;96069.45;;;;
2022/03/26 04:04:44;;;;;;;26.05;14.95;;;;;;;0.01;43.07617;96069.45;;;;
2022/03/26 04:05:45;;;;;;;26.05;14.95;;;;;;;0.01;43.07617;96069.45;;;;
2022/03/26 04:06:45;;;;;;;26.05;14.95;;;;;;;0.01;43.07617;96069.45;;;;
2022/03/26 04:07:46;;;;;;;26.05;14.95;;;;;;;0.01;43.07617;96069.45;;;;
2022/03/26 04:08:47;;;;;;;28.5;15.15;;;;;;;-0.08;43.33984;96070.84;;;;
2022/03/26 04:09:47;;;;;;;28.5;15.15;;;;;;;-0.08;43.33984;96070.84;;;;
2022/03/26 04:10:48;;;;;;;28.5;15.15;;;;;;;-0.08;43.33984;96070.84;;;;
2022/03/26 04:11:48;;;;;;;28.5;15.15;;;;;;;-0.08;43.33984;96070.84;;;;
2022/03/26 04:12:49;;;;;;;28.5;15.15;;;;;;;-0.08;43.33984;96070.84;;;;
2022/03/26 04:13:52;;;;;;;28.5;15.15;;;;;;;-0.08;43.33984;96070.84;;;;
2022/03/26 04:14:53;;;;;;;28.5;15.15;;;;;;;-0.08;43.33984;96070.84;;;;
2022/03/26 04:15:54;;;;;;;28.5;15.15;;;;;;;-0.08;43.33984;96070.84;;;;
2022/03/26 04:16:55;;;;;;;28.5;15.15;;;;;;;-0.08;43.33984;96070.84;;;;
2022/03/26 04:17:55;;;;;;;28.5;15.15;;;;;;;-0.08;43.33984;96070.84;;;;
2022/03/26 04:18:58;;;;;;;33.75001;15.55;;;;;;;-0.11;43.49512;96068.92;;;;
2022/03/26 04:19:59;;;;;;;33.75001;15.55;;;;;;;-0.11;43.49512;96068.92;;;;
2022/03/26 04:21:00;;;;;;;33.75001;15.55;;;;;;;-0.11;43.49512;96068.92;;;;
2022/03/26 04:22:00;;;;;;;33.75001;15.55;;;;;;;-0.11;43.49512;96068.92;;;;
2022/03/26 04:23:01;;;;;;;33.75001;15.55;;;;;;;-0.11;43.49512;96068.92;;;;
2022/03/26 04:24:02;;;;;;;33.75001;15.55;;;;;;;-0.11;43.49512;96068.92;;;;
2022/03/26 04:25:03;;;;;;;33.75001;15.55;;;;;;;-0.11;43.49512;96068.92;;;;
2022/03/26 04:26:05;;;;;;;33.75001;15.55;;;;;;;-0.11;43.49512;96068.92;;;;
2022/03/26 04:27:07;;;;;;;33.75001;15.55;;;;;;;-0.11;43.49512;96068.92;;;;
2022/03/26 04:28:07;;;;;;;33.75001;15.55;;;;;;;-0.11;43.49512;96068.92;;;;
2022/03/26 04:29:08;;;;;;;33.75001;15.55;;;;;;;-0.11;43.49512;96068.92;;;;
2022/03/26 04:30:08;;;;;;;27.7;16.15;;;;;;;-0.13;43.7041;96063.84;;;;
2022/03/26 04:31:10;;;;;;;27.7;16.15;;;;;;;-0.13;43.7041;96063.84;;;;
2022/03/26 04:32:10;;;;;;;27.7;16.15;;;;;;;-0.13;43.7041;96063.84;;;;
2022/03/26 04:33:11;;;;;;;27.7;16.15;;;;;;;-0.13;43.7041;96063.84;;;;
2022/03/26 04:34:11;;;;;;;27.7;16.15;;;;;;;-0.13;43.7041;96063.84;;;;
2022/03/26 04:35:12;;;;;;;27.7;16.15;;;;;;;-0.13;43.7041;96063.84;;;;
2022/03/26 04:36:13;;;;;;;27.7;16.15;;;;;;;-0.13;43.7041;96063.84;;;;
2022/03/26 04:37:14;;;;;;;27.7;16.15;;;;;;;-0.13;43.7041;96063.84;;;;
2022/03/26 04:38:14;;;;;;;27.7;16.15;;;;;;;-0.13;43.7041;96063.84;;;;
2022/03/26 04:39:15;;;;;;;27.7;16.15;;;;;;;-0.13;43.7041;96063.84;;;;
2022/03/26 04:40:15;;;;;;;30.05;16.4;;;;;;;-0.19;43.8877;96070.58;;;;
2022/03/26 04:41:16;;;;;;;30.05;16.4;;;;;;;-0.19;43.8877;96070.58;;;;
2022/03/26 04:42:16;;;;;;;30.05;16.4;;;;;;;-0.19;43.8877;96070.58;;;;
2022/03/26 04:43:18;;;;;;;30.05;16.4;;;;;;;-0.19;43.8877;96070.58;;;;
2022/03/26 04:44:19;;;;;;;30.05;16.4;;;;;;;-0.19;43.8877;96070.58;;;;
2022/03/26 04:45:19;;;;;;;30.05;16.4;;;;;;;-0.19;43.8877;96070.58;;;;
2022/03/26 04:46:20;;;;;;;30.05;16.4;;;;;;;-0.19;43.8877;96070.58;;;;
2022/03/26 04:47:20;;;;;;;30.05;16.4;;;;;;;-0.19;43.8877;96070.58;;;;
2022/03/26 04:48:21;;;;;;;30.05;16.4;;;;;;;-0.19;43.8877;96070.58;;;;
2022/03/26 04:49:22;;;;;;;30.05;16.4;;;;;;;-0.19;43.8877;96070.58;;;;
2022/03/26 04:50:22;;;;;;;30.05;16.4;;;;;;;-0.19;43.8877;96070.58;;;;
2022/03/26 04:51:22;;;;;;;30.05;16.4;;;;;;;-0.19;43.8877;96070.58;;;;
2022/03/26 04:52:23;;;;;;;30.05;16.4;;;;;;;-0.19;43.8877;96070.58;;;;
2022/03/26 04:53:23;;;;;;;30.05;16.4;;;;;;;-0.19;43.8877;96070.58;;;;
2022/03/26 04:54:24;;;;;;;30.05;16.4;;;;;;;-0.19;43.8877;96070.58;;;;
2022/03/26 04:55:25;;;;;;;30.05;16.4;;;;;;;-0.19;43.8877;96070.58;;;;
2022/03/26 04:56:25;;;;;;;30.05;16.4;;;;;;;-0.19;43.8877;96070.58;;;;
2022/03/26 04:57:26;;;;;;;30.05;16.4;;;;;;;-0.19;43.8877;96070.58;;;;
2022/03/26 04:58:26;;;;;;;30.05;16.4;;;;;;;-0.19;43.8877;96070.58;;;;
2022/03/26 04:59:27;;;;;;;30.05;16.4;;;;;;;-0.19;43.8877;96070.58;;;;
2022/03/26 05:00:27;;;;;;;30.05;16.4;;;;;;;-0.19;43.8877;96070.58;;;;
2022/03/26 05:01:28;;;;;;;29.75;16.65;;;;;;;-0.39;44.28711;96078.33;;;;
2022/03/26 05:02:28;;;;;;;29.75;16.65;;;;;;;-0.39;44.28711;96078.33;;;;
2022/03/26 05:03:29;;;;;;;29.75;16.65;;;;;;;-0.39;44.28711;96078.33;;;;
2022/03/26 05:04:30;;;;;;;29.75;16.65;;;;;;;-0.39;44.28711;96078.33;;;;
2022/03/26 05:05:31;;;;;;;29.75;16.65;;;;;;;-0.39;44.28711;96078.33;;;;
2022/03/26 05:06:31;;;;;;;29.75;16.65;;;;;;;-0.39;44.28711;96078.33;;;;
2022/03/26 05:07:47;;;;;;;29.75;16.65;;;;;;;-0.39;44.28711;96078.33;;;;
2022/03/26 05:08:48;;;;;;;29.75;16.65;;;;;;;-0.39;44.28711;96078.33;;;;
2022/03/26 05:09:49;;;;;;;29.75;16.65;;;;;;;-0.39;44.28711;96078.33;;;;
2022/03/26 05:10:49;;;;;;;29.75;16.65;;;;;;;-0.39;44.28711;96078.33;;;;
2022/03/26 05:11:50;;;;;;;29.75;16.65;;;;;;;-0.39;44.28711;96078.33;;;;
2022/03/26 05:12:50;;;;;;;32.25;16.6;;;;;;;-0.41;44.46387;96067.03;;;;
2022/03/26 05:13:52;;;;;;;32.25;16.6;;;;;;;-0.41;44.46387;96067.03;;;;
2022/03/26 05:14:53;;;;;;;32.25;16.6;;;;;;;-0.41;44.46387;96067.03;;;;
2022/03/26 05:15:53;;;;;;;32.25;16.6;;;;;;;-0.41;44.46387;96067.03;;;;
2022/03/26 05:16:54;;;;;;;32.25;16.6;;;;;;;-0.41;44.46387;96067.03;;;;
2022/03/26 05:17:56;;;;;;;32.25;16.6;;;;;;;-0.41;44.46387;96067.03;;;;
2022/03/26 05:18:57;;;;;;;32.25;16.6;;;;;;;-0.41;44.46387;96067.03;;;;
2022/03/26 05:19:57;;;;;;;32.25;16.6;;;;;;;-0.41;44.46387;96067.03;;;;
2022/03/26 05:20:58;;;;;;;32.25;16.6;;;;;;;-0.41;44.46387;96067.03;;;;
2022/03/26 05:21:58;;;;;;;32.25;16.6;;;;;;;-0.41;44.46387;96067.03;;;;
2022/03/26 05:23:01;;;;;;;32.25;16.6;;;;;;;-0.41;44.46387;96067.03;;;;
2022/03/26 05:24:01;;;;;;;32.25;16.6;;;;;;;-0.41;44.46387;96067.03;;;;
2022/03/26 05:25:02;;;;;;;32.25;16.6;;;;;;;-0.41;44.46387;96067.03;;;;
2022/03/26 05:26:03;;;;;;;32.25;16.6;;;;;;;-0.41;44.46387;96067.03;;;;
2022/03/26 05:27:04;;;;;;;32.25;16.6;;;;;;;-0.41;44.46387;96067.03;;;;
2022/03/26 05:28:05;;;;;;;32.25;16.6;;;;;;;-0.41;44.46387;96067.03;;;;
2022/03/26 05:29:07;;;;;;;32.25;16.6;;;;;;;-0.41;44.46387;96067.03;;;;
2022/03/26 05:30:07;;;;;;;32.25;16.6;;;;;;;-0.41;44.46387;96067.03;;;;
2022/03/26 05:31:09;;;;;;;32.25;16.6;;;;;;;-0.41;44.46387;96067.03;;;;
2022/03/26 05:32:10;;;;;;;32.25;16.6;;;;;;;-0.41;44.46387;96067.03;;;;
2022/03/26 05:33:10;;;;;;;32.25;16.6;;;;;;;-0.41;44.46387;96067.03;;;;
2022/03/26 05:34:10;;;;;;;33.90001;17.55;;;;;;;-0.24;44.79785;96087.03;;;;
2022/03/26 05:35:13;;;;;;;33.90001;17.55;;;;;;;-0.24;44.79785;96087.03;;;;
2022/03/26 05:36:14;;;;;;;33.90001;17.55;;;;;;;-0.24;44.79785;96087.03;;;;
2022/03/26 05:37:15;;;;;;;33.90001;17.55;;;;;;;-0.24;44.79785;96087.03;;;;
2022/03/26 05:38:16;;;;;;;33.90001;17.55;;;;;;;-0.24;44.79785;96087.03;;;;
2022/03/26 05:39:17;;;;;;;33.90001;17.55;;;;;;;-0.24;44.79785;96087.03;;;;
2022/03/26 05:40:17;;;;;;;33.90001;17.55;;;;;;;-0.24;44.79785;96087.03;;;;
2022/03/26 05:41:21;;;;;;;33.90001;17.55;;;;;;;-0.24;44.79785;96087.03;;;;
2022/03/26 05:42:22;;;;;;;33.90001;17.55;;;;;;;-0.24;44.79785;96087.03;;;;
2022/03/26 05:43:24;;;;;;;33.90001;17.55;;;;;;;-0.24;44.79785;96087.03;;;;
2022/03/26 05:44:25;;;;;;;31.45;17.4;;;;;;;-0.11;44.80078;96104.75;;;;
2022/03/26 05:45:26;;;;;;;31.45;17.4;;;;;;;-0.11;44.80078;96104.75;;;;